sensor_id;sensor_type;location;lat;lon;timestamp;P1;durP1;ratioP1;P2;durP2;ratioP2
33206;SDS011;19565;46.602;11.534;2023-12-29T00:01:16;2.43;;;2.23;;
33206;SDS011;19565;46.602;11.534;2023-12-29T00:03:44;3.43;;;2.87;;
33206;SDS011;19565;46.602;11.534;2023-12-29T00:06:12;2.20;;;2.10;;
33206;SDS011;19565;46.602;11.534;2023-12-29T00:08:40;2.43;;;2.23;;
33206;SDS011;19565;46.602;11.534;2023-12-29T00:11:15;12.53;;;7.10;;
33206;SDS011;19565;46.602;11.534;2023-12-29T00:13:46;6.53;;;6.13;;
33206;SDS011;19565;46.602;11.534;2023-12-29T00:16:14;9.07;;;8.27;;
33206;SDS011;19565;46.602;11.534;2023-12-29T00:18:43;7.80;;;7.30;;
33206;SDS011;19565;46.602;11.534;2023-12-29T00:21:11;8.93;;;7.97;;
33206;SDS011;19565;46.602;11.534;2023-12-29T00:23:40;8.70;;;8.10;;
33206;SDS011;19565;46.602;11.534;2023-12-29T00:26:08;8.20;;;7.60;;
33206;SDS011;19565;46.602;11.534;2023-12-29T00:28:36;10.23;;;9.53;;
33206;SDS011;19565;46.602;11.534;2023-12-29T00:31:08;11.03;;;9.33;;
33206;SDS011;19565;46.602;11.534;2023-12-29T00:33:36;8.00;;;7.50;;
33206;SDS011;19565;46.602;11.534;2023-12-29T00:36:04;9.87;;;9.27;;
33206;SDS011;19565;46.602;11.534;2023-12-29T00:38:33;9.60;;;9.00;;
33206;SDS011;19565;46.602;11.534;2023-12-29T00:41:01;7.90;;;7.40;;
33206;SDS011;19565;46.602;11.534;2023-12-29T00:43:30;8.33;;;7.73;;
33206;SDS011;19565;46.602;11.534;2023-12-29T00:45:58;8.33;;;7.83;;
33206;SDS011;19565;46.602;11.534;2023-12-29T00:48:30;7.87;;;7.37;;
33206;SDS011;19565;46.602;11.534;2023-12-29T00:51:00;9.57;;;8.93;;
33206;SDS011;19565;46.602;11.534;2023-12-29T00:53:31;8.97;;;8.27;;
33206;SDS011;19565;46.602;11.534;2023-12-29T00:55:59;8.63;;;8.13;;
33206;SDS011;19565;46.602;11.534;2023-12-29T00:58:27;8.03;;;7.53;;
33206;SDS011;19565;46.602;11.534;2023-12-29T01:00:55;10.00;;;9.30;;
33206;SDS011;19565;46.602;11.534;2023-12-29T01:03:24;10.00;;;9.40;;
33206;SDS011;19565;46.602;11.534;2023-12-29T01:05:53;9.27;;;8.77;;
33206;SDS011;19565;46.602;11.534;2023-12-29T01:08:21;11.63;;;10.83;;
33206;SDS011;19565;46.602;11.534;2023-12-29T01:10:49;3.87;;;3.50;;
33206;SDS011;19565;46.602;11.534;2023-12-29T01:13:17;2.80;;;2.60;;
33206;SDS011;19565;46.602;11.534;2023-12-29T01:15:45;2.40;;;2.30;;
33206;SDS011;19565;46.602;11.534;2023-12-29T01:18:13;5.93;;;2.93;;
33206;SDS011;19565;46.602;11.534;2023-12-29T01:20:41;2.47;;;2.30;;
33206;SDS011;19565;46.602;11.534;2023-12-29T01:23:13;3.03;;;2.83;;
33206;SDS011;19565;46.602;11.534;2023-12-29T01:25:41;2.40;;;2.30;;
33206;SDS011;19565;46.602;11.534;2023-12-29T01:28:09;2.57;;;2.37;;
33206;SDS011;19565;46.602;11.534;2023-12-29T01:30:37;2.23;;;2.13;;
33206;SDS011;19565;46.602;11.534;2023-12-29T01:33:06;3.00;;;2.80;;
33206;SDS011;19565;46.602;11.534;2023-12-29T01:35:34;3.17;;;2.97;;
33206;SDS011;19565;46.602;11.534;2023-12-29T01:38:06;3.10;;;2.90;;
33206;SDS011;19565;46.602;11.534;2023-12-29T01:40:43;2.73;;;2.53;;
33206;SDS011;19565;46.602;11.534;2023-12-29T01:43:11;3.17;;;2.97;;
33206;SDS011;19565;46.602;11.534;2023-12-29T01:45:40;4.20;;;3.83;;
33206;SDS011;19565;46.602;11.534;2023-12-29T01:48:21;2.10;;;2.00;;
33206;SDS011;19565;46.602;11.534;2023-12-29T01:50:50;2.97;;;2.83;;
33206;SDS011;19565;46.602;11.534;2023-12-29T01:53:19;2.30;;;2.20;;
33206;SDS011;19565;46.602;11.534;2023-12-29T01:56:01;2.97;;;2.77;;
33206;SDS011;19565;46.602;11.534;2023-12-29T01:58:29;2.70;;;2.50;;
33206;SDS011;19565;46.602;11.534;2023-12-29T02:00:57;3.57;;;3.10;;
33206;SDS011;19565;46.602;11.534;2023-12-29T02:03:27;3.20;;;2.90;;
33206;SDS011;19565;46.602;11.534;2023-12-29T02:05:56;2.73;;;2.53;;
33206;SDS011;19565;46.602;11.534;2023-12-29T02:08:25;4.23;;;3.83;;
33206;SDS011;19565;46.602;11.534;2023-12-29T02:10:55;1.80;;;1.70;;
33206;SDS011;19565;46.602;11.534;2023-12-29T02:13:25;1.87;;;1.77;;
33206;SDS011;19565;46.602;11.534;2023-12-29T02:15:52;3.07;;;2.87;;
33206;SDS011;19565;46.602;11.534;2023-12-29T02:18:26;3.17;;;2.97;;
33206;SDS011;19565;46.602;11.534;2023-12-29T02:20:57;4.60;;;3.87;;
33206;SDS011;19565;46.602;11.534;2023-12-29T02:23:25;2.23;;;2.13;;
33206;SDS011;19565;46.602;11.534;2023-12-29T02:25:55;2.30;;;2.20;;
33206;SDS011;19565;46.602;11.534;2023-12-29T02:28:31;2.60;;;2.40;;
33206;SDS011;19565;46.602;11.534;2023-12-29T02:31:07;9.43;;;8.50;;
33206;SDS011;19565;46.602;11.534;2023-12-29T02:33:41;8.43;;;7.93;;
33206;SDS011;19565;46.602;11.534;2023-12-29T02:36:11;8.53;;;8.03;;
33206;SDS011;19565;46.602;11.534;2023-12-29T02:38:40;9.30;;;8.70;;
33206;SDS011;19565;46.602;11.534;2023-12-29T02:41:10;9.27;;;8.67;;
33206;SDS011;19565;46.602;11.534;2023-12-29T02:43:39;9.07;;;8.57;;
33206;SDS011;19565;46.602;11.534;2023-12-29T02:46:07;10.63;;;10.03;;
33206;SDS011;19565;46.602;11.534;2023-12-29T02:48:35;9.83;;;9.13;;
33206;SDS011;19565;46.602;11.534;2023-12-29T02:51:03;10.67;;;10.07;;
33206;SDS011;19565;46.602;11.534;2023-12-29T02:53:32;12.37;;;11.57;;
33206;SDS011;19565;46.602;11.534;2023-12-29T02:56:00;4.80;;;3.17;;
33206;SDS011;19565;46.602;11.534;2023-12-29T02:58:29;2.53;;;2.33;;
33206;SDS011;19565;46.602;11.534;2023-12-29T03:00:57;2.10;;;2.00;;
33206;SDS011;19565;46.602;11.534;2023-12-29T03:03:25;3.47;;;3.20;;
33206;SDS011;19565;46.602;11.534;2023-12-29T03:05:53;2.70;;;2.60;;
33206;SDS011;19565;46.602;11.534;2023-12-29T03:08:21;2.10;;;2.00;;
33206;SDS011;19565;46.602;11.534;2023-12-29T03:10:49;2.50;;;2.30;;
33206;SDS011;19565;46.602;11.534;2023-12-29T03:13:17;4.67;;;4.30;;
33206;SDS011;19565;46.602;11.534;2023-12-29T03:15:47;1.87;;;1.77;;
33206;SDS011;19565;46.602;11.534;2023-12-29T03:18:15;2.40;;;2.30;;
33206;SDS011;19565;46.602;11.534;2023-12-29T03:20:43;2.10;;;2.00;;
33206;SDS011;19565;46.602;11.534;2023-12-29T03:23:11;2.27;;;2.17;;
33206;SDS011;19565;46.602;11.534;2023-12-29T03:25:39;4.37;;;4.13;;
33206;SDS011;19565;46.602;11.534;2023-12-29T03:28:07;9.57;;;9.07;;
33206;SDS011;19565;46.602;11.534;2023-12-29T03:30:35;10.10;;;9.50;;
33206;SDS011;19565;46.602;11.534;2023-12-29T03:33:04;10.50;;;9.90;;
33206;SDS011;19565;46.602;11.534;2023-12-29T03:35:33;11.67;;;10.97;;
33206;SDS011;19565;46.602;11.534;2023-12-29T03:38:01;11.30;;;10.70;;
33206;SDS011;19565;46.602;11.534;2023-12-29T03:40:30;10.80;;;10.20;;
33206;SDS011;19565;46.602;11.534;2023-12-29T03:42:58;11.00;;;10.40;;
33206;SDS011;19565;46.602;11.534;2023-12-29T03:45:26;10.57;;;9.97;;
33206;SDS011;19565;46.602;11.534;2023-12-29T03:47:54;9.73;;;9.13;;
33206;SDS011;19565;46.602;11.534;2023-12-29T03:50:24;8.93;;;8.37;;
33206;SDS011;19565;46.602;11.534;2023-12-29T03:52:52;9.17;;;8.67;;
33206;SDS011;19565;46.602;11.534;2023-12-29T03:55:20;8.93;;;8.43;;
33206;SDS011;19565;46.602;11.534;2023-12-29T03:57:48;6.73;;;6.33;;
33206;SDS011;19565;46.602;11.534;2023-12-29T04:00:16;6.80;;;6.40;;
33206;SDS011;19565;46.602;11.534;2023-12-29T04:02:44;6.50;;;6.10;;
33206;SDS011;19565;46.602;11.534;2023-12-29T04:05:12;8.33;;;7.83;;
33206;SDS011;19565;46.602;11.534;2023-12-29T04:07:42;8.63;;;8.03;;
33206;SDS011;19565;46.602;11.534;2023-12-29T04:10:10;7.87;;;7.37;;
33206;SDS011;19565;46.602;11.534;2023-12-29T04:12:38;7.57;;;7.07;;
33206;SDS011;19565;46.602;11.534;2023-12-29T04:15:06;6.50;;;6.10;;
33206;SDS011;19565;46.602;11.534;2023-12-29T04:17:35;7.87;;;7.27;;
33206;SDS011;19565;46.602;11.534;2023-12-29T04:20:03;6.63;;;6.23;;
33206;SDS011;19565;46.602;11.534;2023-12-29T04:22:32;7.47;;;6.77;;
33206;SDS011;19565;46.602;11.534;2023-12-29T04:25:02;6.00;;;5.60;;
33206;SDS011;19565;46.602;11.534;2023-12-29T04:27:31;6.70;;;6.30;;
33206;SDS011;19565;46.602;11.534;2023-12-29T04:29:59;7.77;;;7.23;;
33206;SDS011;19565;46.602;11.534;2023-12-29T04:32:27;1.07;;;1.03;;
33206;SDS011;19565;46.602;11.534;2023-12-29T04:34:55;1.87;;;1.77;;
33206;SDS011;19565;46.602;11.534;2023-12-29T04:37:23;1.50;;;1.40;;
33206;SDS011;19565;46.602;11.534;2023-12-29T04:39:51;1.10;;;1.10;;
33206;SDS011;19565;46.602;11.534;2023-12-29T04:42:20;1.83;;;1.73;;
33206;SDS011;19565;46.602;11.534;2023-12-29T04:44:48;1.43;;;1.40;;
33206;SDS011;19565;46.602;11.534;2023-12-29T04:47:16;1.27;;;1.27;;
33206;SDS011;19565;46.602;11.534;2023-12-29T04:49:44;1.10;;;1.10;;
33206;SDS011;19565;46.602;11.534;2023-12-29T04:52:13;1.10;;;1.10;;
33206;SDS011;19565;46.602;11.534;2023-12-29T04:54:41;1.63;;;1.03;;
33206;SDS011;19565;46.602;11.534;2023-12-29T04:57:09;4.27;;;1.93;;
33206;SDS011;19565;46.602;11.534;2023-12-29T04:59:39;3.13;;;2.13;;
33206;SDS011;19565;46.602;11.534;2023-12-29T05:02:07;1.33;;;1.23;;
33206;SDS011;19565;46.602;11.534;2023-12-29T05:04:35;1.67;;;1.57;;
33206;SDS011;19565;46.602;11.534;2023-12-29T05:07:05;1.10;;;1.10;;
33206;SDS011;19565;46.602;11.534;2023-12-29T05:09:33;1.57;;;1.47;;
33206;SDS011;19565;46.602;11.534;2023-12-29T05:12:01;1.90;;;1.80;;
33206;SDS011;19565;46.602;11.534;2023-12-29T05:14:30;1.00;;;1.00;;
33206;SDS011;19565;46.602;11.534;2023-12-29T05:16:59;1.83;;;1.53;;
33206;SDS011;19565;46.602;11.534;2023-12-29T05:19:27;1.57;;;1.53;;
33206;SDS011;19565;46.602;11.534;2023-12-29T05:21:55;1.57;;;1.53;;
33206;SDS011;19565;46.602;11.534;2023-12-29T05:24:23;1.30;;;1.30;;
33206;SDS011;19565;46.602;11.534;2023-12-29T05:26:51;1.90;;;1.80;;
33206;SDS011;19565;46.602;11.534;2023-12-29T05:29:19;5.70;;;5.40;;
33206;SDS011;19565;46.602;11.534;2023-12-29T05:31:47;6.63;;;6.23;;
33206;SDS011;19565;46.602;11.534;2023-12-29T05:34:16;7.10;;;6.70;;
33206;SDS011;19565;46.602;11.534;2023-12-29T05:36:44;8.67;;;8.13;;
33206;SDS011;19565;46.602;11.534;2023-12-29T05:39:16;7.67;;;7.17;;
33206;SDS011;19565;46.602;11.534;2023-12-29T05:41:44;7.00;;;6.60;;
33206;SDS011;19565;46.602;11.534;2023-12-29T05:44:12;8.47;;;7.97;;
33206;SDS011;19565;46.602;11.534;2023-12-29T05:46:40;7.80;;;7.30;;
33206;SDS011;19565;46.602;11.534;2023-12-29T05:49:08;8.00;;;7.50;;
33206;SDS011;19565;46.602;11.534;2023-12-29T05:51:38;8.80;;;8.30;;
33206;SDS011;19565;46.602;11.534;2023-12-29T05:54:06;8.90;;;8.40;;
33206;SDS011;19565;46.602;11.534;2023-12-29T05:56:33;9.57;;;8.97;;
33206;SDS011;19565;46.602;11.534;2023-12-29T05:59:01;8.73;;;8.23;;
33206;SDS011;19565;46.602;11.534;2023-12-29T06:01:32;10.43;;;9.63;;
33206;SDS011;19565;46.602;11.534;2023-12-29T06:04:00;9.10;;;8.60;;
33206;SDS011;19565;46.602;11.534;2023-12-29T06:06:38;9.20;;;8.60;;
33206;SDS011;19565;46.602;11.534;2023-12-29T06:09:13;8.50;;;8.00;;
33206;SDS011;19565;46.602;11.534;2023-12-29T06:11:41;9.20;;;8.67;;
33206;SDS011;19565;46.602;11.534;2023-12-29T06:14:09;9.20;;;8.70;;
33206;SDS011;19565;46.602;11.534;2023-12-29T06:16:37;2.37;;;2.23;;
33206;SDS011;19565;46.602;11.534;2023-12-29T06:19:08;2.57;;;2.47;;
33206;SDS011;19565;46.602;11.534;2023-12-29T06:21:41;1.60;;;1.60;;
33206;SDS011;19565;46.602;11.534;2023-12-29T06:24:10;3.10;;;2.87;;
33206;SDS011;19565;46.602;11.534;2023-12-29T06:26:38;2.77;;;1.70;;
33206;SDS011;19565;46.602;11.534;2023-12-29T06:29:09;3.57;;;3.27;;
33206;SDS011;19565;46.602;11.534;2023-12-29T06:31:40;2.87;;;2.43;;
33206;SDS011;19565;46.602;11.534;2023-12-29T06:34:09;2.07;;;1.97;;
33206;SDS011;19565;46.602;11.534;2023-12-29T06:36:37;3.80;;;3.53;;
33206;SDS011;19565;46.602;11.534;2023-12-29T06:39:07;2.20;;;2.10;;
33206;SDS011;19565;46.602;11.534;2023-12-29T06:41:35;4.33;;;3.93;;
33206;SDS011;19565;46.602;11.534;2023-12-29T06:44:03;2.57;;;2.40;;
33206;SDS011;19565;46.602;11.534;2023-12-29T06:46:31;1.80;;;1.70;;
33206;SDS011;19565;46.602;11.534;2023-12-29T06:49:04;3.20;;;3.00;;
33206;SDS011;19565;46.602;11.534;2023-12-29T06:51:34;3.07;;;2.87;;
33206;SDS011;19565;46.602;11.534;2023-12-29T06:54:06;2.20;;;2.10;;
33206;SDS011;19565;46.602;11.534;2023-12-29T06:56:35;2.97;;;2.80;;
33206;SDS011;19565;46.602;11.534;2023-12-29T06:59:03;2.53;;;2.43;;
33206;SDS011;19565;46.602;11.534;2023-12-29T07:01:31;4.40;;;3.60;;
33206;SDS011;19565;46.602;11.534;2023-12-29T07:03:59;3.23;;;3.03;;
33206;SDS011;19565;46.602;11.534;2023-12-29T07:06:28;2.43;;;2.33;;
33206;SDS011;19565;46.602;11.534;2023-12-29T07:08:56;3.40;;;3.17;;
33206;SDS011;19565;46.602;11.534;2023-12-29T07:11:33;2.00;;;1.90;;
33206;SDS011;19565;46.602;11.534;2023-12-29T07:14:01;7.93;;;7.43;;
33206;SDS011;19565;46.602;11.534;2023-12-29T07:16:29;6.93;;;6.53;;
33206;SDS011;19565;46.602;11.534;2023-12-29T07:19:06;8.67;;;7.83;;
33206;SDS011;19565;46.602;11.534;2023-12-29T07:21:34;13.23;;;9.70;;
33206;SDS011;19565;46.602;11.534;2023-12-29T07:24:05;8.67;;;8.17;;
33206;SDS011;19565;46.602;11.534;2023-12-29T07:26:35;8.23;;;7.73;;
33206;SDS011;19565;46.602;11.534;2023-12-29T07:29:04;9.60;;;9.03;;
33206;SDS011;19565;46.602;11.534;2023-12-29T07:31:32;9.77;;;9.17;;
33206;SDS011;19565;46.602;11.534;2023-12-29T07:34:00;9.03;;;8.40;;
33206;SDS011;19565;46.602;11.534;2023-12-29T07:36:29;8.20;;;7.70;;
33206;SDS011;19565;46.602;11.534;2023-12-29T07:38:57;7.80;;;7.30;;
33206;SDS011;19565;46.602;11.534;2023-12-29T07:41:25;1.87;;;1.77;;
33206;SDS011;19565;46.602;11.534;2023-12-29T07:43:59;2.17;;;2.07;;
33206;SDS011;19565;46.602;11.534;2023-12-29T07:46:27;1.83;;;1.73;;
33206;SDS011;19565;46.602;11.534;2023-12-29T07:48:55;3.37;;;3.07;;
33206;SDS011;19565;46.602;11.534;2023-12-29T07:51:23;1.73;;;1.63;;
33206;SDS011;19565;46.602;11.534;2023-12-29T07:53:52;1.50;;;1.50;;
33206;SDS011;19565;46.602;11.534;2023-12-29T07:56:20;3.67;;;3.30;;
33206;SDS011;19565;46.602;11.534;2023-12-29T07:58:47;1.20;;;1.20;;
33206;SDS011;19565;46.602;11.534;2023-12-29T08:01:17;2.17;;;1.97;;
33206;SDS011;19565;46.602;11.534;2023-12-29T08:03:45;1.30;;;1.30;;
33206;SDS011;19565;46.602;11.534;2023-12-29T08:06:13;3.90;;;2.10;;
33206;SDS011;19565;46.602;11.534;2023-12-29T08:08:42;1.93;;;1.60;;
33206;SDS011;19565;46.602;11.534;2023-12-29T08:11:13;1.63;;;1.53;;
33206;SDS011;19565;46.602;11.534;2023-12-29T08:13:47;3.57;;;3.37;;
33206;SDS011;19565;46.602;11.534;2023-12-29T08:16:17;6.60;;;6.20;;
33206;SDS011;19565;46.602;11.534;2023-12-29T08:18:48;8.47;;;7.77;;
33206;SDS011;19565;46.602;11.534;2023-12-29T08:21:47;7.97;;;7.47;;
33206;SDS011;19565;46.602;11.534;2023-12-29T08:24:15;8.97;;;8.37;;
33206;SDS011;19565;46.602;11.534;2023-12-29T08:26:45;7.43;;;7.03;;
33206;SDS011;19565;46.602;11.534;2023-12-29T08:29:14;9.37;;;8.77;;
33206;SDS011;19565;46.602;11.534;2023-12-29T08:31:44;8.93;;;8.40;;
33206;SDS011;19565;46.602;11.534;2023-12-29T08:34:12;9.60;;;9.03;;
33206;SDS011;19565;46.602;11.534;2023-12-29T08:36:40;9.80;;;9.20;;
33206;SDS011;19565;46.602;11.534;2023-12-29T08:39:08;10.93;;;10.33;;
33206;SDS011;19565;46.602;11.534;2023-12-29T08:41:40;12.13;;;11.47;;
33206;SDS011;19565;46.602;11.534;2023-12-29T08:44:08;12.73;;;12.03;;
33206;SDS011;19565;46.602;11.534;2023-12-29T08:46:36;11.87;;;11.27;;
33206;SDS011;19565;46.602;11.534;2023-12-29T08:49:05;13.63;;;12.63;;
33206;SDS011;19565;46.602;11.534;2023-12-29T08:51:34;13.07;;;12.37;;
33206;SDS011;19565;46.602;11.534;2023-12-29T08:54:03;12.53;;;11.93;;
33206;SDS011;19565;46.602;11.534;2023-12-29T08:56:31;14.93;;;14.13;;
33206;SDS011;19565;46.602;11.534;2023-12-29T08:58:59;16.47;;;15.67;;
33206;SDS011;19565;46.602;11.534;2023-12-29T09:01:27;13.53;;;12.83;;
33206;SDS011;19565;46.602;11.534;2023-12-29T09:03:55;14.23;;;13.43;;
33206;SDS011;19565;46.602;11.534;2023-12-29T09:06:24;13.33;;;12.63;;
33206;SDS011;19565;46.602;11.534;2023-12-29T09:08:52;14.00;;;13.30;;
33206;SDS011;19565;46.602;11.534;2023-12-29T09:11:20;15.10;;;14.03;;
33206;SDS011;19565;46.602;11.534;2023-12-29T09:13:48;14.43;;;13.63;;
33206;SDS011;19565;46.602;11.534;2023-12-29T09:16:16;15.13;;;14.37;;
33206;SDS011;19565;46.602;11.534;2023-12-29T09:18:45;16.67;;;15.87;;
33206;SDS011;19565;46.602;11.534;2023-12-29T09:21:13;16.73;;;15.93;;
33206;SDS011;19565;46.602;11.534;2023-12-29T09:23:42;5.23;;;4.83;;
33206;SDS011;19565;46.602;11.534;2023-12-29T09:26:12;15.37;;;14.57;;
33206;SDS011;19565;46.602;11.534;2023-12-29T09:28:41;17.53;;;16.40;;
33206;SDS011;19565;46.602;11.534;2023-12-29T09:31:10;18.58;;;17.52;;
33206;SDS011;19565;46.602;11.534;2023-12-29T09:33:38;19.43;;;18.27;;
33206;SDS011;19565;46.602;11.534;2023-12-29T09:36:06;18.27;;;17.47;;
33206;SDS011;19565;46.602;11.534;2023-12-29T09:38:34;20.10;;;19.10;;
33206;SDS011;19565;46.602;11.534;2023-12-29T09:41:07;18.13;;;17.33;;
33206;SDS011;19565;46.602;11.534;2023-12-29T09:43:38;20.40;;;19.43;;
33206;SDS011;19565;46.602;11.534;2023-12-29T09:46:08;20.97;;;19.70;;
33206;SDS011;19565;46.602;11.534;2023-12-29T09:48:51;23.63;;;22.53;;
33206;SDS011;19565;46.602;11.534;2023-12-29T09:51:25;20.37;;;19.40;;
33206;SDS011;19565;46.602;11.534;2023-12-29T09:53:55;21.23;;;20.00;;
33206;SDS011;19565;46.602;11.534;2023-12-29T09:56:27;20.50;;;19.40;;
33206;SDS011;19565;46.602;11.534;2023-12-29T09:58:56;21.90;;;20.80;;
33206;SDS011;19565;46.602;11.534;2023-12-29T10:01:25;22.17;;;21.13;;
33206;SDS011;19565;46.602;11.534;2023-12-29T10:03:56;21.40;;;20.30;;
33206;SDS011;19565;46.602;11.534;2023-12-29T10:06:25;22.10;;;21.00;;
33206;SDS011;19565;46.602;11.534;2023-12-29T10:08:55;22.13;;;21.07;;
33206;SDS011;19565;46.602;11.534;2023-12-29T10:11:24;22.57;;;21.57;;
33206;SDS011;19565;46.602;11.534;2023-12-29T10:13:56;21.07;;;20.10;;
33206;SDS011;19565;46.602;11.534;2023-12-29T10:16:31;22.87;;;21.67;;
33206;SDS011;19565;46.602;11.534;2023-12-29T10:19:09;23.80;;;22.67;;
33206;SDS011;19565;46.602;11.534;2023-12-29T10:21:48;22.70;;;21.70;;
33206;SDS011;19565;46.602;11.534;2023-12-29T10:24:23;24.03;;;22.83;;
33206;SDS011;19565;46.602;11.534;2023-12-29T10:26:52;24.17;;;22.97;;
33206;SDS011;19565;46.602;11.534;2023-12-29T10:29:21;21.70;;;20.70;;
33206;SDS011;19565;46.602;11.534;2023-12-29T10:31:50;24.57;;;23.47;;
33206;SDS011;19565;46.602;11.534;2023-12-29T10:34:19;23.70;;;22.57;;
33206;SDS011;19565;46.602;11.534;2023-12-29T10:36:56;25.37;;;24.17;;
33206;SDS011;19565;46.602;11.534;2023-12-29T10:39:25;26.23;;;24.97;;
33206;SDS011;19565;46.602;11.534;2023-12-29T10:42:06;24.03;;;23.00;;
33206;SDS011;19565;46.602;11.534;2023-12-29T10:44:38;25.43;;;24.23;;
33206;SDS011;19565;46.602;11.534;2023-12-29T10:47:09;26.13;;;23.93;;
33206;SDS011;19565;46.602;11.534;2023-12-29T10:49:39;26.50;;;25.30;;
33206;SDS011;19565;46.602;11.534;2023-12-29T10:52:12;27.73;;;26.50;;
33206;SDS011;19565;46.602;11.534;2023-12-29T10:54:41;24.87;;;23.77;;
33206;SDS011;19565;46.602;11.534;2023-12-29T10:57:12;25.30;;;24.20;;
33206;SDS011;19565;46.602;11.534;2023-12-29T10:59:41;25.20;;;24.10;;
33206;SDS011;19565;46.602;11.534;2023-12-29T11:02:11;25.60;;;24.50;;
33206;SDS011;19565;46.602;11.534;2023-12-29T11:04:41;27.67;;;25.27;;
33206;SDS011;19565;46.602;11.534;2023-12-29T11:07:11;25.87;;;24.77;;
33206;SDS011;19565;46.602;11.534;2023-12-29T11:09:40;26.27;;;25.17;;
33206;SDS011;19565;46.602;11.534;2023-12-29T11:12:09;25.77;;;24.60;;
33206;SDS011;19565;46.602;11.534;2023-12-29T11:14:40;23.53;;;22.53;;
33206;SDS011;19565;46.602;11.534;2023-12-29T11:17:34;24.73;;;23.63;;
33206;SDS011;19565;46.602;11.534;2023-12-29T11:20:03;24.87;;;23.73;;
33206;SDS011;19565;46.602;11.534;2023-12-29T11:22:32;26.83;;;25.63;;
33206;SDS011;19565;46.602;11.534;2023-12-29T11:25:00;25.60;;;22.70;;
33206;SDS011;19565;46.602;11.534;2023-12-29T11:27:29;24.23;;;23.13;;
33206;SDS011;19565;46.602;11.534;2023-12-29T11:29:59;24.43;;;23.33;;
33206;SDS011;19565;46.602;11.534;2023-12-29T11:32:31;24.43;;;23.33;;
33206;SDS011;19565;46.602;11.534;2023-12-29T11:35:13;24.67;;;23.47;;
33206;SDS011;19565;46.602;11.534;2023-12-29T11:38:08;24.93;;;23.83;;
33206;SDS011;19565;46.602;11.534;2023-12-29T11:40:50;23.73;;;22.60;;
33206;SDS011;19565;46.602;11.534;2023-12-29T11:43:26;22.03;;;21.03;;
33206;SDS011;19565;46.602;11.534;2023-12-29T11:45:54;23.57;;;22.57;;
33206;SDS011;19565;46.602;11.534;2023-12-29T11:51:28;22.37;;;21.37;;
33206;SDS011;19565;46.602;11.534;2023-12-29T11:53:58;23.20;;;22.20;;
33206;SDS011;19565;46.602;11.534;2023-12-29T11:56:30;23.33;;;22.10;;
33206;SDS011;19565;46.602;11.534;2023-12-29T11:59:12;20.87;;;19.77;;
33206;SDS011;19565;46.602;11.534;2023-12-29T12:01:41;22.90;;;21.90;;
33206;SDS011;19565;46.602;11.534;2023-12-29T12:07:03;12.87;;;12.07;;
33206;SDS011;19565;46.602;11.534;2023-12-29T12:09:33;10.40;;;9.80;;
33206;SDS011;19565;46.602;11.534;2023-12-29T12:12:02;11.83;;;11.20;;
33206;SDS011;19565;46.602;11.534;2023-12-29T12:14:47;23.43;;;22.30;;
33206;SDS011;19565;46.602;11.534;2023-12-29T12:17:27;22.87;;;21.87;;
33206;SDS011;19565;46.602;11.534;2023-12-29T12:19:58;26.00;;;24.80;;
33206;SDS011;19565;46.602;11.534;2023-12-29T12:22:31;22.47;;;21.47;;
33206;SDS011;19565;46.602;11.534;2023-12-29T12:25:05;24.10;;;22.07;;
33206;SDS011;19565;46.602;11.534;2023-12-29T12:27:38;24.73;;;23.53;;
33206;SDS011;19565;46.602;11.534;2023-12-29T12:30:07;23.60;;;22.53;;
33206;SDS011;19565;46.602;11.534;2023-12-29T12:32:42;24.07;;;22.97;;
33206;SDS011;19565;46.602;11.534;2023-12-29T12:35:15;22.87;;;21.70;;
33206;SDS011;19565;46.602;11.534;2023-12-29T12:37:46;22.87;;;21.87;;
33206;SDS011;19565;46.602;11.534;2023-12-29T12:40:24;22.93;;;21.93;;
33206;SDS011;19565;46.602;11.534;2023-12-29T12:42:53;25.33;;;22.57;;
33206;SDS011;19565;46.602;11.534;2023-12-29T12:45:22;24.57;;;23.47;;
33206;SDS011;19565;46.602;11.534;2023-12-29T12:47:55;24.30;;;23.23;;
33206;SDS011;19565;46.602;11.534;2023-12-29T12:50:31;25.00;;;23.90;;
33206;SDS011;19565;46.602;11.534;2023-12-29T12:53:00;24.70;;;23.57;;
33206;SDS011;19565;46.602;11.534;2023-12-29T12:55:35;23.13;;;22.13;;
33206;SDS011;19565;46.602;11.534;2023-12-29T12:58:05;24.53;;;23.43;;
33206;SDS011;19565;46.602;11.534;2023-12-29T13:00:34;21.97;;;20.97;;
33206;SDS011;19565;46.602;11.534;2023-12-29T13:03:03;21.10;;;20.20;;
33206;SDS011;19565;46.602;11.534;2023-12-29T13:05:33;21.27;;;20.27;;
33206;SDS011;19565;46.602;11.534;2023-12-29T13:08:04;23.77;;;22.53;;
33206;SDS011;19565;46.602;11.534;2023-12-29T13:10:34;21.90;;;20.83;;
33206;SDS011;19565;46.602;11.534;2023-12-29T13:13:08;11.20;;;10.40;;
33206;SDS011;19565;46.602;11.534;2023-12-29T13:15:44;11.90;;;11.10;;
33206;SDS011;19565;46.602;11.534;2023-12-29T13:18:27;11.23;;;10.43;;
33206;SDS011;19565;46.602;11.534;2023-12-29T13:21:09;22.50;;;21.47;;
33206;SDS011;19565;46.602;11.534;2023-12-29T13:24:03;21.63;;;20.63;;
33206;SDS011;19565;46.602;11.534;2023-12-29T13:27:14;20.80;;;19.90;;
33206;SDS011;19565;46.602;11.534;2023-12-29T13:30:33;21.20;;;20.30;;
33206;SDS011;19565;46.602;11.534;2023-12-29T13:40:11;11.77;;;11.00;;
33206;SDS011;19565;46.602;11.534;2023-12-29T13:42:45;10.70;;;9.80;;
33206;SDS011;19565;46.602;11.534;2023-12-29T13:45:17;12.43;;;11.73;;
33206;SDS011;19565;46.602;11.534;2023-12-29T13:47:47;11.83;;;11.13;;
33206;SDS011;19565;46.602;11.534;2023-12-29T13:50:16;10.30;;;9.70;;
33206;SDS011;19565;46.602;11.534;2023-12-29T13:52:45;12.10;;;11.40;;
33206;SDS011;19565;46.602;11.534;2023-12-29T13:55:15;10.20;;;9.60;;
33206;SDS011;19565;46.602;11.534;2023-12-29T13:57:49;22.93;;;11.00;;
33206;SDS011;19565;46.602;11.534;2023-12-29T14:00:18;11.17;;;10.47;;
33206;SDS011;19565;46.602;11.534;2023-12-29T14:02:58;19.03;;;17.83;;
33206;SDS011;19565;46.602;11.534;2023-12-29T14:05:31;10.40;;;9.80;;
33206;SDS011;19565;46.602;11.534;2023-12-29T14:08:05;11.33;;;10.57;;
33206;SDS011;19565;46.602;11.534;2023-12-29T14:10:39;9.70;;;9.20;;
33206;SDS011;19565;46.602;11.534;2023-12-29T14:13:14;16.57;;;15.47;;
33206;SDS011;19565;46.602;11.534;2023-12-29T14:15:48;18.77;;;17.87;;
33206;SDS011;19565;46.602;11.534;2023-12-29T14:18:27;18.33;;;17.50;;
33206;SDS011;19565;46.602;11.534;2023-12-29T14:21:19;19.63;;;18.63;;
33206;SDS011;19565;46.602;11.534;2023-12-29T14:23:59;19.40;;;18.50;;
33206;SDS011;19565;46.602;11.534;2023-12-29T14:26:33;19.50;;;18.33;;
33206;SDS011;19565;46.602;11.534;2023-12-29T14:29:02;19.30;;;18.40;;
33206;SDS011;19565;46.602;11.534;2023-12-29T14:31:31;19.30;;;18.40;;
33206;SDS011;19565;46.602;11.534;2023-12-29T14:34:05;20.57;;;19.67;;
33206;SDS011;19565;46.602;11.534;2023-12-29T14:36:35;19.97;;;19.07;;
33206;SDS011;19565;46.602;11.534;2023-12-29T14:39:08;10.63;;;10.03;;
33206;SDS011;19565;46.602;11.534;2023-12-29T14:41:39;11.10;;;10.47;;
33206;SDS011;19565;46.602;11.534;2023-12-29T14:44:07;11.23;;;10.53;;
33206;SDS011;19565;46.602;11.534;2023-12-29T14:46:39;11.50;;;10.80;;
33206;SDS011;19565;46.602;11.534;2023-12-29T14:49:07;10.83;;;10.13;;
33206;SDS011;19565;46.602;11.534;2023-12-29T14:51:36;10.43;;;9.83;;
33206;SDS011;19565;46.602;11.534;2023-12-29T14:54:04;9.70;;;9.20;;
33206;SDS011;19565;46.602;11.534;2023-12-29T14:56:33;11.13;;;10.47;;